»·PEaware :: DCM205 KBZN-KSUN

DCM205 :: KBZN-KSUN

FLIGHT INFORMATION

Flight Status: Arrived
Operator:
DotCom
More flights by this operator :: More flights under this callsign
Pilot: Chris S. (2433)
Aircraft: AIRBUS A320
(A320)
More flights by this aircraft type
Origin: KBZN Gallatin
United States
Destination: KSUN Friedman Meml
United States
More flights between these airports :: More routes between these airports
Route: +TEERX4 DBS HLE
File this flight plan on PilotEdge
Remarks:
Altitude:
(Current/Filed)
26,000ft
Speed:
(Current/Filed)
450kts
Departed: 09-Jul-20 04:03 PM
Arrived: 09-Jul-20 04:45 PM
Distance/Time
Traveled:
191nm/0:42
Distance/Time
To Go:
Arrived

Flight Plot

Page will automatically refresh every two minutes.

Flight plan parsing failed; only flown route is shown


Map Options




Map Legend


Flown Route
Filed Route
Departure Airport
Arrival Airport
Navaid (VOR, NDB)
Fix

Horizontal Profiles

Position Reports

Time Latitude Longitude Heading Altitude Ground
Speed
09-Jul-20 15:43 45.779111 -111.160883 224 4485ft 0kts
09-Jul-20 15:44 45.779111 -111.160883 224 4485ft 0kts
09-Jul-20 15:45 45.779111 -111.160883 224 4485ft 0kts
09-Jul-20 15:46 45.779111 -111.160883 224 4485ft 0kts
09-Jul-20 15:47 45.779111 -111.160883 224 4485ft 0kts
09-Jul-20 15:48 45.779111 -111.160883 224 4485ft 0kts
09-Jul-20 15:49 45.779111 -111.160883 224 4485ft 0kts
09-Jul-20 15:50 45.779111 -111.160883 224 4485ft 0kts
09-Jul-20 15:51 45.779111 -111.160883 224 4485ft 0kts
09-Jul-20 15:52 45.779707 -111.160697 147 4485ft 2kts
09-Jul-20 15:53 45.779818 -111.160814 136 4485ft 0kts
09-Jul-20 15:54 45.779817 -111.160813 136 4485ft 0kts
09-Jul-20 15:55 45.779817 -111.160812 136 4485ft 0kts
09-Jul-20 15:56 45.779482 -111.160349 136 4485ft 6kts
09-Jul-20 15:57 45.780902 -111.160597 315 4485ft 15kts
09-Jul-20 15:58 45.784851 -111.166265 316 4485ft 24kts
09-Jul-20 15:59 45.787250 -111.167519 51 4485ft 0kts
09-Jul-20 16:00 45.787250 -111.167518 51 4485ft 0kts
09-Jul-20 16:01 45.787735 -111.166030 129 4485ft 11kts
09-Jul-20 16:02 45.767903 -111.138660 135 4770ft 177kts
09-Jul-20 16:03 45.726585 -111.142921 246 6617ft 197kts
09-Jul-20 16:04 45.698800 -111.224249 267 7917ft 262kts
09-Jul-20 16:05 45.712611 -111.335201 277 10202ft 293kts
09-Jul-20 16:06 45.726273 -111.460141 277 11658ft 346kts
09-Jul-20 16:07 45.734191 -111.599860 253 13908ft 357kts
09-Jul-20 16:08 45.658501 -111.682507 194 16130ft 371kts
09-Jul-20 16:09 45.556164 -111.714996 196 18225ft 381kts
09-Jul-20 16:10 45.451633 -111.751567 195 20130ft 392kts
09-Jul-20 16:11 45.344036 -111.788405 196 21823ft 403kts
09-Jul-20 16:12 45.234281 -111.825912 196 23610ft 405kts
09-Jul-20 16:13 45.124722 -111.863252 196 25554ft 401kts
09-Jul-20 16:14 45.016112 -111.900127 196 26111ft 403kts
09-Jul-20 16:15 44.907122 -111.937039 196 26115ft 402kts
09-Jul-20 16:16 44.798105 -111.973655 197 26112ft 402kts
09-Jul-20 16:17 44.713204 -112.063748 232 26147ft 388kts
09-Jul-20 16:18 44.644102 -112.179183 230 26106ft 383kts
09-Jul-20 16:19 44.574872 -112.291416 230 26062ft 385kts
09-Jul-20 16:20 44.501220 -112.410648 230 26073ft 417kts
09-Jul-20 16:21 44.424569 -112.534333 230 26073ft 422kts
09-Jul-20 16:22 44.347466 -112.658150 230 26096ft 422kts
09-Jul-20 16:24 44.270049 -112.781861 230 26106ft 422kts
09-Jul-20 16:25 44.192814 -112.904867 230 26090ft 420kts
09-Jul-20 16:26 44.116139 -113.026330 231 26080ft 413kts
09-Jul-20 16:27 44.040900 -113.145100 231 26076ft 409kts
09-Jul-20 16:28 43.964843 -113.264663 231 26084ft 412kts
09-Jul-20 16:29 43.889677 -113.382279 231 25410ft 405kts
09-Jul-20 16:30 43.815052 -113.498578 231 24420ft 403kts
09-Jul-20 16:31 43.740499 -113.614359 230 24090ft 403kts
09-Jul-20 16:32 43.665657 -113.730026 230 23835ft 402kts
09-Jul-20 16:33 43.592367 -113.843346 230 21387ft 389kts
09-Jul-20 16:34 43.519800 -113.950269 216 19050ft 377kts
09-Jul-20 16:35 43.424215 -114.006103 202 16682ft 369kts
09-Jul-20 16:36 43.328984 -114.054255 202 14236ft 359kts
09-Jul-20 16:37 43.236500 -114.102048 202 11817ft 351kts
09-Jul-20 16:38 43.166544 -114.181367 257 9935ft 322kts
09-Jul-20 16:39 43.203596 -114.270403 343 9435ft 287kts
09-Jul-20 16:40 43.282678 -114.278312 4 8922ft 277kts
09-Jul-20 16:41 43.356081 -114.247889 27 7890ft 275kts
09-Jul-20 16:42 43.420201 -114.230880 342 6985ft 197kts
09-Jul-20 16:42 43.456197 -114.250843 328 6290ft 163kts
09-Jul-20 16:44 43.498992 -114.290961 324 5316ft 152kts
09-Jul-20 16:44 43.508726 -114.301131 235 5323ft 1kts
09-Jul-20 16:45 43.509152 -114.303073 190 5325ft 1kts
09-Jul-20 16:47 43.509144 -114.303074 188 5325ft 0kts
09-Jul-20 16:47 43.509144 -114.303074 188 5325ft 0kts

Navigation Log

Ident Type
Flight plan parsing failed, navigation log unavailable